Salina, KS (67401)

06:31 CDT le 27 juillet 2016 (GMT -0500)
Stegall's Oasis | | Change Station

Alt. 1247 ft 38.82 °N, 97.63 °W | Updated 13 minutes ago

Scattered Clouds
Nuages épars
70.7 ° F
Paraît 70.7 ° F
N
0.0
Vent Variable Vent de ESE

Aujourd'hui
Haut(e) -- | Bas -- ° F
--% Risque de précip.
Hier
Haut(e) -- | Bas -- ° F
Precip. -- pouce
Pression 30.00 pouce
Visibilité 10.0 Miles terrestres
Nuages Peu 2600 ft
Nuages épars 4900 ft
Nuages épars 7000 ft
Point de rosée 68 ° F
Humidité 90%
Précipitations 0.00 pouce
Profondeur de la couche neigeuse Non disponible.
6:27 AM 8:45 PM
Dernier quartier, 44% visible
METAR KSLN 271053Z AUTO 33006KT 10SM FEW026 SCT049 SCT070 22/20 A3004 RMK AO2 SLP158 T02220200
Pression 30.00 pouce
Visibilité 10.0 Miles terrestres
Nuages Peu 2600 ft
Nuages épars 4900 ft
Nuages épars 7000 ft
Point de rosée 68 ° F
Humidité 90%
Précipitations 0.00 pouce
Profondeur de la couche neigeuse Non disponible.
6:27 AM 8:45 PM
Dernier quartier, 44% visible
METAR KSLN 271053Z AUTO 33006KT 10SM FEW026 SCT049 SCT070 22/20 A3004 RMK AO2 SLP158 T02220200

10-Day Weather Forecast

Almanac

Astronomie

Jul. 27, 2016 Lever Coucher
Temps réel
Crépuscule civil
Crépuscule nautique
Crépuscule astronomique
Lune
Durée de lumière visible
Longueur du jour
Tomorrow will be .
, % of the Moon is Illuminated

Extrêmes aujourd'hui

State Highs State Lows

Community

WunderPhotos

Upload Photos

1,927,828 Photos téléchargées !

WunderBlog® & News

Nearby

Qualité de l'air

  Qualité de l'air Indice de la qualité de l'air Polluant
Not available.

Épaisseur de neige

Station Depth Altitude

Activité sismique

Ville Distance Mag. Time & Date
Minimum magnitude displayed is 2.5.

Températures des eaux côtières

Lieu Température

Stations

Stations météo à proximité

Emplacement de la station Température Refroidissement éolien Point de rosée Humidité Vent Precip. Alt. Mise à jour Type
                   

Watches & Warnings

There are currently no watches in effect.